createdAt,value
2022-12-24T00:01:04.416Z,1.40
2022-12-24T00:03:31.383Z,1.17
2022-12-24T00:05:58.151Z,1.50
2022-12-24T00:08:24.848Z,0.93
2022-12-24T00:10:52.455Z,1.20
2022-12-24T00:13:20.031Z,1.30
2022-12-24T00:15:47.006Z,0.97
2022-12-24T00:18:13.699Z,1.30
2022-12-24T00:20:40.825Z,0.90
2022-12-24T00:23:07.981Z,1.00
2022-12-24T00:25:34.718Z,0.73
2022-12-24T00:28:01.363Z,1.33
2022-12-24T00:30:28.198Z,1.10
2022-12-24T00:32:55.154Z,1.20
2022-12-24T00:35:22.096Z,1.00
2022-12-24T00:37:49.485Z,1.13
2022-12-24T00:40:17.793Z,1.10
2022-12-24T00:42:44.621Z,1.10
2022-12-24T00:45:12.512Z,0.70
2022-12-24T00:47:39.303Z,0.70
2022-12-24T00:50:07.976Z,0.90
2022-12-24T00:52:34.708Z,1.00
2022-12-24T00:55:01.383Z,1.00
2022-12-24T00:57:28.002Z,1.00
2022-12-24T00:59:54.591Z,0.70
2022-12-24T01:02:21.829Z,0.87
2022-12-24T01:05:07.385Z,0.77
2022-12-24T01:07:34.356Z,0.60
2022-12-24T01:10:00.969Z,0.70
2022-12-24T01:12:28.129Z,0.90
2022-12-24T01:14:54.865Z,0.97
2022-12-24T01:17:21.514Z,1.07
2022-12-24T01:19:48.154Z,1.27
2022-12-24T01:22:14.930Z,1.20
2022-12-24T01:24:43.955Z,1.10
2022-12-24T01:27:10.821Z,1.37
2022-12-24T01:29:37.685Z,1.23
2022-12-24T01:32:04.731Z,1.20
2022-12-24T01:34:31.510Z,1.20
2022-12-24T01:36:58.144Z,1.50
2022-12-24T01:39:25.001Z,1.37
2022-12-24T01:42:10.543Z,1.10
2022-12-24T01:44:42.762Z,1.30
2022-12-24T01:47:26.929Z,0.97
2022-12-24T01:49:58.738Z,1.23
2022-12-24T01:52:30.438Z,1.10
2022-12-24T01:55:03.779Z,1.10
2022-12-24T01:57:34.780Z,1.10
2022-12-24T02:00:05.826Z,1.10
2022-12-24T02:02:33.677Z,1.00
2022-12-24T02:05:14.308Z,1.20
2022-12-24T02:07:43.046Z,1.23
2022-12-24T02:10:12.644Z,1.20
2022-12-24T02:12:41.212Z,0.97
2022-12-24T02:15:10.316Z,1.37
2022-12-24T02:18:13.689Z,1.17
2022-12-24T02:21:34.483Z,1.03
2022-12-24T02:24:24.415Z,0.80
2022-12-24T02:27:02.653Z,0.77
2022-12-24T02:30:11.612Z,1.10
2022-12-24T02:33:08.420Z,0.90
2022-12-24T02:35:55.496Z,1.00
2022-12-24T02:38:29.143Z,1.10
2022-12-24T02:41:02.713Z,1.30
2022-12-24T02:43:35.628Z,1.20
2022-12-24T02:46:08.756Z,1.50
2022-12-24T02:48:37.981Z,1.33
2022-12-24T02:51:08.457Z,1.33
2022-12-24T02:53:37.070Z,1.20
2022-12-24T02:56:26.850Z,1.03
2022-12-24T02:59:24.513Z,0.90
2022-12-24T03:01:51.118Z,1.10
2022-12-24T03:04:41.347Z,1.03
2022-12-24T03:07:11.958Z,1.20
2022-12-24T03:09:47.680Z,1.07
2022-12-24T03:12:23.321Z,0.90
2022-12-24T03:14:50.587Z,0.70
2022-12-24T03:17:19.065Z,1.00
2022-12-24T03:19:47.023Z,0.70
2022-12-24T03:22:13.865Z,1.00
2022-12-24T03:24:40.488Z,1.10
2022-12-24T03:27:09.826Z,0.80
2022-12-24T03:29:38.699Z,0.90
2022-12-24T03:32:05.441Z,0.90
2022-12-24T03:34:32.085Z,1.10
2022-12-24T03:36:58.849Z,1.00
2022-12-24T03:39:25.432Z,0.83
2022-12-24T03:41:52.310Z,0.87
2022-12-24T03:44:19.070Z,1.20
2022-12-24T03:46:45.722Z,0.90
2022-12-24T03:49:12.387Z,1.00
2022-12-24T03:51:38.996Z,1.20
2022-12-24T03:54:05.644Z,1.03
2022-12-24T03:56:32.239Z,0.93
2022-12-24T03:58:58.997Z,0.80
2022-12-24T04:01:25.817Z,1.00
2022-12-24T04:03:52.495Z,1.10
2022-12-24T04:06:19.271Z,1.00
2022-12-24T04:08:46.045Z,1.00
2022-12-24T04:11:15.115Z,1.00
2022-12-24T04:13:42.022Z,0.70
2022-12-24T04:16:11.704Z,1.10
2022-12-24T04:18:39.391Z,1.00
2022-12-24T04:21:06.835Z,1.00
2022-12-24T04:23:36.307Z,1.00
2022-12-24T04:26:05.854Z,0.80
2022-12-24T04:28:33.551Z,0.97
2022-12-24T04:31:00.948Z,0.80
2022-12-24T04:33:27.569Z,1.30
2022-12-24T04:35:54.344Z,0.80
2022-12-24T04:38:21.002Z,1.00
2022-12-24T04:40:47.639Z,1.20
2022-12-24T04:43:14.623Z,1.00
2022-12-24T04:45:41.281Z,0.93
2022-12-24T04:48:07.932Z,0.97
2022-12-24T04:50:34.870Z,0.90
2022-12-24T04:53:01.466Z,0.93
2022-12-24T04:55:28.027Z,1.07
2022-12-24T04:57:54.983Z,0.90
2022-12-24T05:00:21.959Z,1.17
2022-12-24T05:02:48.654Z,0.90
2022-12-24T05:05:15.591Z,0.83
2022-12-24T05:07:42.195Z,1.30
2022-12-24T05:10:11.034Z,1.07
2022-12-24T05:12:38.029Z,0.93
2022-12-24T05:15:05.001Z,0.67
2022-12-24T05:17:31.591Z,1.00
2022-12-24T05:19:58.178Z,1.10
2022-12-24T05:22:43.290Z,1.07
2022-12-24T05:25:28.911Z,0.70
2022-12-24T05:27:55.997Z,1.00
2022-12-24T05:30:22.571Z,1.20
2022-12-24T05:32:49.530Z,0.90
2022-12-24T05:35:16.298Z,1.07
2022-12-24T05:37:42.900Z,1.00
2022-12-24T05:40:10.105Z,0.87
2022-12-24T05:42:36.693Z,0.87
2022-12-24T05:45:03.583Z,1.00
2022-12-24T05:47:30.623Z,1.00
2022-12-24T05:49:57.391Z,1.10
2022-12-24T05:52:24.096Z,1.13
2022-12-24T05:54:50.665Z,1.03
2022-12-24T05:57:17.376Z,0.93
2022-12-24T05:59:43.966Z,1.33
2022-12-24T06:02:10.838Z,0.80
2022-12-24T06:04:38.079Z,1.17
2022-12-24T06:07:04.669Z,1.00
2022-12-24T06:09:31.534Z,1.60
2022-12-24T06:11:58.152Z,1.20
2022-12-24T06:14:24.756Z,1.30
2022-12-24T06:16:51.955Z,1.50
2022-12-24T06:19:18.702Z,1.60
2022-12-24T06:21:45.346Z,2.03
2022-12-24T06:24:11.907Z,1.20
2022-12-24T06:26:38.537Z,1.20
2022-12-24T06:29:05.074Z,1.13
2022-12-24T06:31:31.959Z,1.30
2022-12-24T06:33:58.577Z,1.37
2022-12-24T06:36:25.874Z,1.40
2022-12-24T06:38:54.669Z,1.40
2022-12-24T06:41:21.748Z,1.20
2022-12-24T06:43:51.379Z,1.00
2022-12-24T06:46:19.012Z,0.80
2022-12-24T06:48:46.473Z,0.80
2022-12-24T06:51:14.645Z,1.10
2022-12-24T06:53:41.491Z,1.00
2022-12-24T06:56:11.146Z,1.00
2022-12-24T06:58:38.146Z,1.00
2022-12-24T07:01:07.079Z,1.10
2022-12-24T07:03:34.904Z,1.17
2022-12-24T07:06:01.769Z,1.20
2022-12-24T07:08:28.568Z,1.27
2022-12-24T07:10:55.167Z,1.00
2022-12-24T07:13:21.858Z,1.20
2022-12-24T07:15:57.709Z,1.00
2022-12-24T07:18:24.323Z,1.03
2022-12-24T07:20:50.886Z,1.23
2022-12-24T07:23:17.689Z,1.30
2022-12-24T07:25:44.387Z,0.90
2022-12-24T07:28:11.121Z,1.10
2022-12-24T07:30:37.682Z,0.60
2022-12-24T07:33:04.386Z,0.90
2022-12-24T07:35:30.957Z,1.03
2022-12-24T07:37:57.699Z,0.80
2022-12-24T07:40:24.213Z,1.07
2022-12-24T07:42:50.886Z,0.90
2022-12-24T07:45:17.543Z,0.97
2022-12-24T07:47:44.259Z,1.07
2022-12-24T07:50:11.076Z,0.90
2022-12-24T07:52:37.871Z,1.10
2022-12-24T07:55:04.673Z,1.50
2022-12-24T07:57:31.265Z,1.03
2022-12-24T07:59:57.905Z,1.07
2022-12-24T08:02:24.804Z,1.77
2022-12-24T08:04:51.432Z,1.20
2022-12-24T08:07:18.003Z,3.37
2022-12-24T08:09:46.035Z,4.07
2022-12-24T08:12:12.788Z,3.00
2022-12-24T08:14:39.434Z,2.50
2022-12-24T08:17:06.021Z,1.40
2022-12-24T08:19:32.603Z,1.20
2022-12-24T08:21:59.339Z,1.37
2022-12-24T08:24:25.910Z,1.00
2022-12-24T08:26:52.524Z,1.40
2022-12-24T08:29:19.107Z,1.00
2022-12-24T08:31:45.843Z,1.03
2022-12-24T08:34:12.471Z,1.20
2022-12-24T08:36:39.213Z,1.20
2022-12-24T08:39:08.860Z,5.27
2022-12-24T08:41:35.922Z,3.70
2022-12-24T08:44:02.926Z,1.80
2022-12-24T08:46:29.628Z,1.80
2022-12-24T08:48:56.452Z,2.43
2022-12-24T08:51:23.027Z,2.40
2022-12-24T08:53:49.692Z,1.63
2022-12-24T08:56:16.565Z,1.27
2022-12-24T08:58:43.487Z,1.40
2022-12-24T09:01:15.912Z,1.10
2022-12-24T09:03:43.187Z,1.27
2022-12-24T09:06:10.321Z,0.97
2022-12-24T09:08:37.241Z,1.13
2022-12-24T09:11:12.372Z,1.10
2022-12-24T09:13:39.865Z,1.00
2022-12-24T09:16:07.544Z,1.03
2022-12-24T09:18:34.947Z,1.10
2022-12-24T09:21:07.779Z,1.40
2022-12-24T09:23:41.584Z,1.23
2022-12-24T09:26:17.036Z,1.63
2022-12-24T09:28:44.539Z,1.70
2022-12-24T09:31:12.410Z,1.77
2022-12-24T09:33:40.858Z,2.20
2022-12-24T09:36:08.221Z,1.70
2022-12-24T09:38:36.291Z,1.77
2022-12-24T09:41:14.784Z,1.40
2022-12-24T09:43:47.567Z,1.30
2022-12-24T09:46:14.091Z,1.33
2022-12-24T09:48:46.784Z,1.20
2022-12-24T09:51:27.347Z,1.13
2022-12-24T09:54:10.729Z,1.20
2022-12-24T09:56:44.752Z,0.90
2022-12-24T09:59:15.083Z,1.00
2022-12-24T10:01:42.075Z,0.97
2022-12-24T10:04:14.732Z,1.00
2022-12-24T10:06:53.953Z,1.43
2022-12-24T10:09:26.373Z,0.93
2022-12-24T10:12:14.709Z,1.17
2022-12-24T10:15:03.112Z,1.30
2022-12-24T10:17:47.896Z,1.10
2022-12-24T10:20:39.376Z,0.90
2022-12-24T10:23:38.775Z,0.77
2022-12-24T10:26:19.106Z,1.10
2022-12-24T10:28:58.213Z,0.80
2022-12-24T10:31:32.110Z,0.70
2022-12-24T10:34:02.744Z,0.63
2022-12-24T10:36:30.746Z,1.40
2022-12-24T10:38:58.015Z,0.93
2022-12-24T10:41:27.166Z,0.90
2022-12-24T10:43:55.157Z,0.90
2022-12-24T10:46:24.551Z,0.50
2022-12-24T10:49:00.461Z,0.60
2022-12-24T10:51:27.021Z,0.60
2022-12-24T10:54:07.554Z,0.70
2022-12-24T10:56:41.353Z,0.80
2022-12-24T10:59:28.175Z,0.80
2022-12-24T11:01:57.204Z,0.60
2022-12-24T11:04:26.580Z,0.50
2022-12-24T11:07:05.100Z,0.90
2022-12-24T11:09:34.618Z,0.97
2022-12-24T11:12:09.391Z,1.37
2022-12-24T11:14:40.104Z,0.90
2022-12-24T11:17:07.087Z,1.20
2022-12-24T11:19:41.496Z,1.00
2022-12-24T11:22:24.903Z,0.90
2022-12-24T11:25:40.788Z,1.00
2022-12-24T11:28:22.695Z,0.90
2022-12-24T11:31:19.544Z,1.20
2022-12-24T11:33:52.895Z,1.30
2022-12-24T11:36:24.566Z,0.93
2022-12-24T11:38:56.693Z,0.80
2022-12-24T11:41:24.497Z,0.70
2022-12-24T11:43:58.543Z,0.90
2022-12-24T11:46:28.267Z,11.20
2022-12-24T11:49:16.915Z,0.70
2022-12-24T11:52:00.138Z,0.80
2022-12-24T11:54:34.394Z,1.97
2022-12-24T11:57:02.019Z,1.00
2022-12-24T11:59:46.795Z,1.40
2022-12-24T12:02:24.109Z,0.90
2022-12-24T12:04:56.881Z,0.80
2022-12-24T12:07:34.009Z,0.80
2022-12-24T12:10:11.852Z,0.90
2022-12-24T12:12:43.061Z,1.07
2022-12-24T12:15:16.823Z,0.90
2022-12-24T12:18:19.385Z,0.87
2022-12-24T12:20:54.084Z,0.90
2022-12-24T12:23:31.314Z,0.73
2022-12-24T12:26:08.752Z,0.80
2022-12-24T12:28:54.780Z,0.77
2022-12-24T12:31:34.347Z,0.70
2022-12-24T12:34:09.473Z,0.63
2022-12-24T12:36:59.528Z,0.63
2022-12-24T12:39:26.497Z,0.80
2022-12-24T12:42:15.416Z,1.50
2022-12-24T12:45:12.437Z,0.87
2022-12-24T12:47:54.636Z,0.90
2022-12-24T12:50:58.837Z,0.87
2022-12-24T12:53:32.122Z,0.73
2022-12-24T12:56:11.479Z,0.90
2022-12-24T12:58:44.653Z,0.90
2022-12-24T13:01:32.229Z,0.77
2022-12-24T13:04:21.653Z,0.80
2022-12-24T13:07:35.881Z,0.90
2022-12-24T13:10:09.843Z,0.80
2022-12-24T13:12:54.991Z,0.87
2022-12-24T13:16:03.431Z,0.90
2022-12-24T13:18:54.212Z,1.17
2022-12-24T13:21:23.963Z,0.93
2022-12-24T13:23:50.962Z,1.40
2022-12-24T13:26:18.694Z,1.20
2022-12-24T13:28:45.484Z,1.30
2022-12-24T13:31:12.094Z,1.60
2022-12-24T13:33:38.713Z,1.60
2022-12-24T13:36:07.878Z,1.67
2022-12-24T13:38:49.504Z,1.10
2022-12-24T13:41:41.072Z,1.47
2022-12-24T13:44:12.741Z,1.20
2022-12-24T13:46:51.307Z,1.50
2022-12-24T13:49:49.468Z,1.20
2022-12-24T13:52:30.886Z,1.30
2022-12-24T13:54:57.403Z,1.60
2022-12-24T13:57:32.521Z,1.27
2022-12-24T14:00:20.769Z,1.57
2022-12-24T14:03:17.094Z,1.67
2022-12-24T14:05:43.681Z,1.80
2022-12-24T14:08:18.628Z,1.70
2022-12-24T14:11:37.727Z,1.37
2022-12-24T14:14:04.533Z,1.83
2022-12-24T14:16:41.779Z,1.80
2022-12-24T14:19:16.770Z,1.87
2022-12-24T14:22:05.222Z,1.40
2022-12-24T14:24:37.571Z,1.43
2022-12-24T14:27:25.176Z,1.63
2022-12-24T14:30:08.808Z,2.13
2022-12-24T14:32:37.964Z,1.60
2022-12-24T14:35:19.503Z,1.77
2022-12-24T14:37:49.164Z,2.00
2022-12-24T14:40:22.883Z,2.00
2022-12-24T14:43:04.236Z,1.67
2022-12-24T14:45:45.115Z,1.70
2022-12-24T14:48:19.294Z,1.87
2022-12-24T14:50:57.624Z,2.50
2022-12-24T14:53:50.591Z,2.70
2022-12-24T14:56:20.058Z,4.40
2022-12-24T14:58:47.477Z,2.10
2022-12-24T15:01:20.166Z,3.27
2022-12-24T15:04:00.508Z,4.20
2022-12-24T15:06:29.060Z,5.70
2022-12-24T15:08:56.234Z,3.20
2022-12-24T15:11:24.251Z,4.23
2022-12-24T15:13:54.200Z,4.50
2022-12-24T15:16:30.914Z,2.90
2022-12-24T15:19:02.963Z,2.33
2022-12-24T15:21:37.529Z,3.23
2022-12-24T15:24:04.775Z,2.90
2022-12-24T15:26:36.563Z,2.60
2022-12-24T15:29:20.375Z,3.30
2022-12-24T15:31:53.530Z,3.67
2022-12-24T15:34:33.313Z,3.57
2022-12-24T15:37:11.074Z,3.87
2022-12-24T15:39:39.540Z,3.30
2022-12-24T15:42:14.118Z,3.90
2022-12-24T15:44:45.563Z,2.93
2022-12-24T15:47:21.627Z,3.20
2022-12-24T15:49:52.328Z,4.47
2022-12-24T15:52:24.686Z,4.43
2022-12-24T15:54:57.792Z,5.10
2022-12-24T15:57:33.657Z,4.97
2022-12-24T16:00:02.174Z,4.60
2022-12-24T16:02:33.981Z,4.53
2022-12-24T16:05:30.189Z,6.63
2022-12-24T16:08:24.123Z,5.20
2022-12-24T16:11:08.128Z,5.20
2022-12-24T16:13:44.002Z,4.67
2022-12-24T16:16:16.379Z,4.40
2022-12-24T16:18:52.750Z,4.00
2022-12-24T16:21:26.006Z,4.50
2022-12-24T16:23:56.023Z,4.47
2022-12-24T16:26:23.160Z,5.10
2022-12-24T16:28:50.416Z,5.20
2022-12-24T16:31:39.623Z,5.10
2022-12-24T16:34:06.395Z,4.20
2022-12-24T16:36:33.183Z,3.50
2022-12-24T16:39:18.324Z,5.47
2022-12-24T16:42:03.209Z,4.80
2022-12-24T16:44:29.999Z,4.60
2022-12-24T16:46:59.654Z,4.03
2022-12-24T16:49:27.111Z,4.17
2022-12-24T16:51:53.923Z,4.10
2022-12-24T16:54:20.574Z,4.30
2022-12-24T16:56:47.215Z,3.77
2022-12-24T16:59:19.962Z,4.77
2022-12-24T17:01:47.690Z,4.37
2022-12-24T17:04:15.454Z,4.70
2022-12-24T17:06:42.461Z,4.90
2022-12-24T17:09:11.035Z,3.80
2022-12-24T17:11:38.236Z,3.97
2022-12-24T17:14:08.659Z,4.07
2022-12-24T17:16:37.588Z,3.57
2022-12-24T17:19:05.177Z,3.20
2022-12-24T17:21:31.998Z,3.00
2022-12-24T17:23:58.682Z,2.63
2022-12-24T17:26:25.269Z,2.83
2022-12-24T17:28:55.790Z,2.90
2022-12-24T17:31:23.535Z,2.90
2022-12-24T17:33:51.535Z,2.87
2022-12-24T17:36:19.295Z,3.20
2022-12-24T17:38:46.347Z,3.20
2022-12-24T17:41:16.166Z,3.13
2022-12-24T17:43:43.349Z,3.67
2022-12-24T17:46:13.272Z,2.10
2022-12-24T17:48:39.881Z,2.80
2022-12-24T17:51:12.205Z,1.90
2022-12-24T17:53:40.855Z,2.20
2022-12-24T17:56:10.578Z,2.20
2022-12-24T17:58:37.184Z,2.40
2022-12-24T18:01:04.416Z,2.57
2022-12-24T18:03:31.390Z,2.80
2022-12-24T18:06:06.162Z,3.20
2022-12-24T18:08:34.856Z,3.53
2022-12-24T18:11:12.033Z,3.80
2022-12-24T18:13:39.394Z,4.33
2022-12-24T18:16:16.046Z,4.03
2022-12-24T18:18:42.697Z,3.87
2022-12-24T18:21:09.750Z,5.10
2022-12-24T18:23:37.004Z,4.87
2022-12-24T18:26:05.457Z,5.07
2022-12-24T18:28:32.575Z,5.30
2022-12-24T18:31:00.828Z,5.67
2022-12-24T18:33:28.105Z,5.40
2022-12-24T18:35:54.661Z,5.70
2022-12-24T18:38:21.808Z,5.93
2022-12-24T18:40:48.467Z,6.17
2022-12-24T18:43:15.170Z,6.43
2022-12-24T18:45:43.470Z,7.93
2022-12-24T18:48:10.885Z,6.83
2022-12-24T18:50:38.500Z,6.30
2022-12-24T18:53:05.607Z,6.67
2022-12-24T18:55:37.212Z,6.47
2022-12-24T18:58:04.172Z,6.77
2022-12-24T19:00:30.963Z,6.13
2022-12-24T19:02:57.586Z,5.73
2022-12-24T19:05:24.202Z,5.20
2022-12-24T19:07:50.754Z,5.03
2022-12-24T19:10:17.458Z,4.90
2022-12-24T19:12:43.996Z,5.27
2022-12-24T19:15:10.924Z,5.73
2022-12-24T19:17:37.584Z,6.87
2022-12-24T19:20:04.637Z,5.90
2022-12-24T19:22:31.216Z,6.47
2022-12-24T19:24:57.918Z,7.03
2022-12-24T19:27:24.479Z,6.70
2022-12-24T19:29:51.246Z,7.73
2022-12-24T19:32:17.827Z,8.47
2022-12-24T19:34:44.502Z,8.03
2022-12-24T19:37:11.468Z,7.77
2022-12-24T19:39:38.071Z,8.40
2022-12-24T19:42:05.726Z,7.73
2022-12-24T19:44:32.517Z,8.57
2022-12-24T19:46:59.083Z,7.20
2022-12-24T19:49:25.750Z,8.40
2022-12-24T19:51:53.802Z,9.07
2022-12-24T19:54:20.631Z,7.87
2022-12-24T19:56:47.331Z,7.87
2022-12-24T19:59:14.092Z,9.00
2022-12-24T20:01:40.751Z,8.83
2022-12-24T20:04:07.817Z,8.43
2022-12-24T20:06:35.637Z,8.23
2022-12-24T20:09:05.511Z,8.53
2022-12-24T20:11:32.711Z,8.87
2022-12-24T20:14:01.406Z,8.23
2022-12-24T20:16:32.128Z,9.30
2022-12-24T20:19:04.537Z,8.10
2022-12-24T20:21:31.829Z,8.80
2022-12-24T20:23:58.548Z,8.07
2022-12-24T20:26:28.593Z,7.70
2022-12-24T20:28:55.531Z,8.07
2022-12-24T20:31:23.650Z,8.53
2022-12-24T20:33:50.456Z,9.67
2022-12-24T20:36:19.036Z,7.67
2022-12-24T20:38:46.715Z,7.63
2022-12-24T20:41:15.175Z,8.23
2022-12-24T20:43:47.708Z,7.57
2022-12-24T20:46:15.402Z,7.10
2022-12-24T20:48:42.351Z,7.53
2022-12-24T20:51:16.008Z,7.30
2022-12-24T20:53:46.459Z,6.90
2022-12-24T20:56:17.861Z,5.50
2022-12-24T20:58:45.137Z,5.33
2022-12-24T21:01:15.780Z,5.40
2022-12-24T21:03:42.688Z,6.00
2022-12-24T21:06:09.528Z,5.30
2022-12-24T21:08:36.591Z,5.87
2022-12-24T21:11:21.585Z,5.83
2022-12-24T21:13:48.464Z,6.77
2022-12-24T21:16:15.057Z,5.83
2022-12-24T21:18:41.647Z,6.20
2022-12-24T21:21:08.334Z,6.50
2022-12-24T21:23:34.864Z,7.13
2022-12-24T21:26:03.180Z,5.90
2022-12-24T21:28:31.630Z,6.43
2022-12-24T21:30:58.209Z,6.87
2022-12-24T21:33:25.075Z,6.30
2022-12-24T21:35:58.304Z,6.23
2022-12-24T21:38:25.663Z,5.77
2022-12-24T21:41:00.709Z,6.60
2022-12-24T21:43:29.934Z,6.40
2022-12-24T21:45:57.053Z,6.37
2022-12-24T21:48:43.108Z,6.17
2022-12-24T21:51:10.145Z,5.90
2022-12-24T21:53:55.790Z,5.77
2022-12-24T21:56:23.617Z,6.57
2022-12-24T21:58:50.949Z,6.40
2022-12-24T22:01:18.634Z,5.63
2022-12-24T22:03:48.781Z,6.20
2022-12-24T22:06:36.504Z,5.10
2022-12-24T22:09:22.083Z,9.83
2022-12-24T22:11:54.235Z,5.57
2022-12-24T22:14:21.969Z,5.50
2022-12-24T22:16:48.821Z,5.63
2022-12-24T22:19:15.435Z,7.40
2022-12-24T22:21:42.039Z,9.00
2022-12-24T22:24:08.937Z,7.60
2022-12-24T22:26:35.573Z,7.13
2022-12-24T22:29:04.857Z,4.20
2022-12-24T22:31:32.813Z,4.70
2022-12-24T22:34:00.017Z,6.27
2022-12-24T22:36:26.800Z,4.90
2022-12-24T22:38:53.609Z,3.90
2022-12-24T22:41:20.626Z,4.30
2022-12-24T22:43:49.745Z,4.63
2022-12-24T22:46:17.301Z,4.90
2022-12-24T22:48:45.652Z,5.93
2022-12-24T22:51:14.808Z,4.60
2022-12-24T22:53:41.441Z,5.17
2022-12-24T22:56:09.551Z,6.00
2022-12-24T22:58:37.123Z,5.07
2022-12-24T23:01:04.201Z,5.53
2022-12-24T23:03:30.949Z,5.87
2022-12-24T23:06:01.464Z,6.03
2022-12-24T23:08:29.446Z,6.00
2022-12-24T23:11:07.263Z,6.00
2022-12-24T23:13:53.306Z,5.77
2022-12-24T23:16:20.075Z,5.97
2022-12-24T23:18:46.720Z,5.93
2022-12-24T23:21:13.376Z,6.47
2022-12-24T23:23:40.116Z,5.80
2022-12-24T23:26:09.597Z,5.87
2022-12-24T23:28:37.329Z,5.63
2022-12-24T23:31:04.255Z,6.07
2022-12-24T23:33:31.044Z,5.57
2022-12-24T23:35:57.783Z,5.30
2022-12-24T23:38:24.419Z,6.57
2022-12-24T23:40:54.524Z,6.37
2022-12-24T23:43:21.156Z,5.30
2022-12-24T23:45:52.322Z,5.30
2022-12-24T23:48:19.931Z,5.13
2022-12-24T23:50:47.493Z,5.10
2022-12-24T23:53:15.358Z,5.50
2022-12-24T23:55:42.359Z,7.67
2022-12-24T23:58:13.108Z,7.30
